• Join FlightAware (Why Join?)
  • Login
  • US Flag 
06:25AM EDT


 

Airport Tracker/Info


-or-


 

Live Flight TrackerFlight Track Log ✈ TAM3129 ✈ 18-Mar-2014 ✈ SBVT / VIX - SBSP / CGH

Flight Track Log - Related Links

Times and Time Zones

All times are in EDT time to prevent confusion due to time zone crossing. See the TAM3129 flight status page for this flight to view local times or setup timezone preferences in your user account.

Time Position Orientation Groundspeed Altitude Reporting Facility
EDT Latitude Longitude Course Direction KTS MPH feet Rate Location/Type
05:05AM -20.2522 -40.2831 33° Northeast 161 185 400  Level FlightAware ADS-B (SBVT / VIX)
05:05AM -20.2345 -40.2712 32° Northeast 167 192 1,100 2,040 Climbing FlightAware ADS-B (SBVT / VIX)
05:06AM -20.2142 -40.2573 33° Northeast 195 224 2,000 1,560 Climbing FlightAware ADS-B (SBVT / VIX)
05:06AM -20.2025 -40.2490 35° Northeast 221 254 2,300 1,680 Climbing FlightAware ADS-B (SBVT / VIX)
05:06AM -20.1914 -40.2362 63° Northeast 241 277 2,900 2,700 Climbing FlightAware ADS-B (SBVT / VIX)
05:07AM -20.1860 -40.2162 84° East 258 297 3,700 3,360 Climbing FlightAware ADS-B (SBVT / VIX)
05:07AM -20.1891 -40.1966 110° East 270 311 4,600 3,660 Climbing FlightAware ADS-B (SBVT / VIX)
05:07AM -20.1998 -40.1812 140° Southeast 275 316 5,600 3,900 Climbing FlightAware ADS-B (SBVT / VIX)
05:07AM -20.2202 -40.1720 170° South 280 322 6,700 3,540 Climbing FlightAware ADS-B (SBVT / VIX)
05:08AM -20.2401 -40.1706 180° South 286 329 7,500 3,360 Climbing FlightAware ADS-B (SBVT / VIX)
05:08AM -20.2792 -40.1689 176° South 290 334 9,200 3,120 Climbing FlightAware ADS-B (SBVT / VIX)
05:08AM -20.2999 -40.1671 175° South 300 345 9,900 2,040 Climbing FlightAware ADS-B (SBVT / VIX)
05:09AM -20.3672 -40.1606 175° South 345 397 11,300 1,920 Climbing FlightAware ADS-B (SBVT / VIX)
05:09AM -20.3936 -40.1618 193° South 358 412 11,900 2,220 Climbing FlightAware ADS-B (SBVT / VIX)
05:10AM -20.4176 -40.1732 214° Southwest 366 421 12,500 2,520 Climbing FlightAware ADS-B (SBVT / VIX)
05:10AM -20.4777 -40.2204 216° Southwest 372 428 14,400 2,640 Climbing FlightAware ADS-B (SBVT / VIX)
05:11AM -20.5188 -40.2525 216° Southwest 372 428 15,800 2,520 Climbing FlightAware ADS-B (SBVT / VIX)
05:12AM -20.5833 -40.3028 217° Southwest 373 429 17,700 2,100 Climbing FlightAware ADS-B (SBVT / VIX)
05:13AM -20.6480 -40.3537 217° Southwest 386 444 19,000 1,920 Climbing FlightAware ADS-B (SBVT / VIX)
05:13AM -20.7112 -40.4035 217° Southwest 392 451 20,600 1,920 Climbing FlightAware ADS-B (SBVT / VIX)
05:14AM -20.7575 -40.4402 217° Southwest 399 459 21,400 1,680 Climbing FlightAware ADS-B (SBVT / VIX)
05:14AM -20.8020 -40.4753 217° Southwest 404 465 22,300 1,680 Climbing FlightAware ADS-B (SBVT / VIX)
05:15AM -20.8680 -40.5275 217° Southwest 412 474 23,500 1,680 Climbing FlightAware ADS-B (SBVT / VIX)
05:15AM -20.9147 -40.5645 217° Southwest 416 479 24,400 1,620 Climbing FlightAware ADS-B (SBVT / VIX)
05:16AM -20.9878 -40.6224 217° Southwest 421 484 25,600 1,620 Climbing FlightAware ADS-B (SBVT / VIX)
05:17AM -21.0581 -40.6784 217° Southwest 424 488 26,900 1,500 Climbing FlightAware ADS-B (SBVT / VIX)
05:18AM -21.1091 -40.7189 217° Southwest 429 494 27,600 1,320 Climbing FlightAware ADS-B (SBVT / VIX)
05:18AM -21.1794 -40.7749 217° Southwest 436 502 28,600 1,380 Climbing FlightAware ADS-B (SBVT / VIX)
05:19AM -21.2567 -40.8365 217° Southwest 440 506 29,700 1,320 Climbing FlightAware ADS-B (SBVT / VIX)
05:20AM -21.3071 -40.8767 217° Southwest 444 511 30,400 1,680 Climbing FlightAware ADS-B (SBVT / VIX)
05:20AM -21.3607 -40.9193 217° Southwest 435 501 31,500 1,740 Climbing FlightAware ADS-B (SBVT / VIX)
05:21AM -21.3970 -40.9483 217° Southwest 436 502 32,200 1,260 Climbing FlightAware ADS-B (SBVT / VIX)
05:21AM -21.4822 -41.0166 217° Southwest 438 504 33,100 1,080 Climbing FlightAware ADS-B (SBVT / VIX)
05:22AM -21.5417 -41.0642 217° Southwest 439 505 33,800 840 Climbing FlightAware ADS-B (SBRJ / SDU)
05:23AM -21.6035 -41.1137 217° Southwest 443 510 34,300 780 Climbing FlightAware ADS-B (SBRJ / SDU)
05:23AM -21.6728 -41.1693 217° Southwest 444 511 34,900 840 Climbing FlightAware ADS-B (SBRJ / SDU)
05:24AM -21.7421 -41.2252 217° Southwest 443 510 35,500 840 Climbing FlightAware ADS-B (SBRJ / SDU)
05:25AM -21.7192 -41.2068 217° Southwest 425 489 36,000 360 Climbing FlightAware ADS-B (SBVT / VIX)
05:25AM -21.8700 -41.3276 217° Southwest 415 478 36,000  Level FlightAware ADS-B (SBVT / VIX)
05:26AM -21.9303 -41.3765 217° Southwest 420 483 36,000  Level FlightAware ADS-B (SBRJ / SDU)
05:27AM -21.9854 -41.4212 217° Southwest 421 484 36,000  Level FlightAware ADS-B (SBVT / VIX)
05:27AM -22.0501 -41.4735 217° Southwest 420 483 36,000  Level FlightAware ADS-B (SBRJ / SDU)
05:28AM -22.1039 -41.5172 217° Southwest 420 483 36,000  Level FlightAware ADS-B (SBVT / VIX)
05:28AM -22.1500 -41.5545 217° Southwest 420 483 36,000  Level FlightAware ADS-B (SBRJ / SDU)
05:29AM -22.2074 -41.6010 217° Southwest 421 484 36,000  Level FlightAware ADS-B (SBRJ / SDU)
05:30AM -22.2646 -41.6475 217° Southwest 422 486 36,000  Level FlightAware ADS-B (SBRJ / SDU)
05:30AM -22.3317 -41.7017 217° Southwest 422 486 36,000  Level FlightAware ADS-B (SBRJ / SDU)
05:31AM -22.3925 -41.7511 217° Southwest 423 487 36,000  Level FlightAware ADS-B (SBRJ / SDU)
05:32AM -22.4801 -41.8226 217° Southwest 425 489 36,000  Level FlightAware ADS-B (SBVT / VIX)
05:34AM -22.6475 -41.9591 217° Southwest 425 489 36,000  Level FlightAware ADS-B (SBRJ / SDU)
05:34AM -22.7105 -42.0129 222° Southwest 424 488 36,000  Level FlightAware ADS-B (SBRJ / SDU)
05:35AM -22.7644 -42.0752 231° Southwest 423 487 36,000  Level FlightAware ADS-B (SBRJ / SDU)
05:36AM -22.8087 -42.1469 241° Southwest 422 486 36,000  Level FlightAware ADS-B (SBRJ / SDU)
05:36AM -22.8386 -42.2164 249° West 422 486 36,000  Level FlightAware ADS-B (SBRJ / SDU)
05:37AM -22.8631 -42.3074 256° West 424 488 36,000  Level FlightAware ADS-B (SBRJ / SDU)
05:38AM -22.8804 -42.3801 256° West 425 489 36,000  Level FlightAware ADS-B (SBRJ / SDU)
05:38AM -22.9008 -42.4670 256° West 427 491 36,000  Level FlightAware ADS-B (SBRJ / SDU)
05:39AM -22.9197 -42.5494 256° West 429 494 36,000  Level FlightAware ADS-B (SBRJ / SDU)
05:40AM -22.9398 -42.6355 256° West 431 496 36,000  Level FlightAware ADS-B (SBRJ / SDU)
05:40AM -22.9600 -42.7207 256° West 432 497 36,000  Level FlightAware ADS-B (SBRJ / SDU)
05:41AM -22.9765 -42.7915 256° West 433 498 36,000  Level FlightAware ADS-B (SBRJ / SDU)
05:42AM -22.9995 -42.8914 256° West 434 499 36,000  Level FlightAware ADS-B (SBRJ / SDU)
05:42AM -23.0168 -42.9666 256° West 435 501 36,000  Level FlightAware ADS-B (SBRJ / SDU)
05:43AM -23.0367 -43.0544 256° West 434 499 36,000  Level FlightAware ADS-B (SBRJ / SDU)
05:44AM -23.0556 -43.1360 256° West 434 499 36,000  Level FlightAware ADS-B (SBRJ / SDU)
05:44AM -23.0756 -43.2237 256° West 434 499 36,000  Level FlightAware ADS-B (SBRJ / SDU)
05:45AM -23.0953 -43.3095 256° West 433 498 36,000  Level FlightAware ADS-B (SBRJ / SDU)
05:46AM -23.1150 -43.3958 256° West 434 499 36,000  Level FlightAware ADS-B (SBRJ / SDU)
05:46AM -23.1319 -43.4710 256° West 435 501 36,000  Level FlightAware ADS-B (SBRJ / SDU)
05:47AM -23.1522 -43.5597 256° West 437 503 36,000  Level FlightAware ADS-B (SBRJ / SDU)
05:48AM -23.1768 -43.6704 256° West 437 503 36,000  Level FlightAware ADS-B (NZJC)
05:49AM -23.2050 -43.7956 256° West 438 504 36,000  Level FlightAware ADS-B (NZJC)
05:50AM -23.2293 -43.9021 256° West 440 506 36,000  Level FlightAware ADS-B (NZJC)
05:50AM -23.2514 -44.0013 256° West 441 507 36,000  Level FlightAware ADS-B (NZJC)
05:51AM -23.2664 -44.0691 257° West 441 507 36,000  Level FlightAware ADS-B (SBMT / SAO)
05:51AM -23.2709 -44.0890 258° West 440 506 36,000  Level FlightAware ADS-B (SBMT / SAO)
05:52AM -23.2985 -44.2137 256° West 442 509 36,000  Level FlightAware ADS-B (NZJC)
05:53AM -23.3191 -44.3037 257° West 440 506 36,000  Level FlightAware ADS-B (SBMT / SAO)
05:53AM -23.3194 -44.3048 257° West 440 506 36,000  Level FlightAware ADS-B (SBMT / SAO)
05:53AM -23.3383 -44.3877 256° West 442 509 36,000  Level FlightAware ADS-B (NZJC)
05:54AM -23.3621 -44.4946 256° West 442 509 36,000  Level FlightAware ADS-B (NZJC)
05:55AM -23.3742 -44.5490 256° West 442 509 36,000  Level FlightAware ADS-B (NZJC)
05:55AM -23.3879 -44.6108 257° West 442 509 36,000  Level FlightAware ADS-B (NZJC)
05:56AM -23.3998 -44.6644 257° West 442 509 36,000  Level FlightAware ADS-B (NZJC)
05:56AM -23.4170 -44.7421 257° West 442 509 36,000  Level FlightAware ADS-B (SBMT / SAO)
05:57AM -23.4321 -44.8106 258° West 439 505 36,000  Level FlightAware ADS-B (SBMT / SAO)
05:57AM -23.4469 -44.8773 258° West 440 506 36,000  Level FlightAware ADS-B (SBMT / SAO)
05:58AM -23.4594 -44.9333 258° West 441 507 36,000  Level FlightAware ADS-B (SBMT / SAO)
05:58AM -23.4741 -45.0008 257° West 445 512 36,000 -780 Level FlightAware ADS-B (SBMT / SAO)
05:59AM -23.4886 -45.0689 258° West 453 521 35,200 -2,640 Descending FlightAware ADS-B (SBMT / SAO)
05:59AM -23.4963 -45.1042 258° West 468 539 34,000 -3,000 Descending FlightAware ADS-B (SBMT / SAO)
06:00AM -23.5186 -45.2108 258° West 458 527 32,100 -2,520 Descending FlightAware ADS-B (SBMT / SAO)
06:00AM -23.5200 -45.2173 258° West 457 526 31,900 -2,280 Descending FlightAware ADS-B (SBMT / SAO)
06:00AM -23.5353 -45.2880 257° West 449 517 30,800 -2,100 Descending FlightAware ADS-B (SBMT / SAO)
06:01AM -23.5501 -45.3578 257° West 439 505 29,700 -2,040 Descending FlightAware ADS-B (SBMT / SAO)
06:01AM -23.5639 -45.4230 257° West 431 496 28,700 -1,980 Descending FlightAware ADS-B (SBMT / SAO)
06:02AM -23.5776 -45.4869 257° West 424 488 27,700 -1,980 Descending FlightAware ADS-B (SBMT / SAO)
06:02AM -23.5907 -45.5488 258° West 414 476 26,700 -2,040 Descending FlightAware ADS-B (SBMT / SAO)
06:03AM -23.6036 -45.6102 258° West 407 468 25,700 -2,100 Descending FlightAware ADS-B (SBMT / SAO)
06:03AM -23.6102 -45.6419 257° West 405 466 25,100 -2,040 Descending FlightAware ADS-B (NZJC)
06:04AM -23.6246 -45.7101 258° West 395 455 24,000 -1,920 Descending FlightAware ADS-B (SBMT / SAO)
06:04AM -23.6310 -45.7411 257° West 393 452 23,500 -1,860 Descending FlightAware ADS-B (NZJC)
06:04AM -23.6430 -45.7982 257° West 387 445 22,600 -1,920 Descending FlightAware ADS-B (SBMT / SAO)
06:05AM -23.6566 -45.8634 257° West 380 437 21,500 -1,800 Descending FlightAware ADS-B (SBMT / SAO)
06:06AM -23.6703 -45.9294 257° West 375 432 20,500 -1,800 Descending FlightAware ADS-B (NZJC)
06:06AM -23.6799 -45.9758 258° West 369 425 19,700 -1,800 Descending FlightAware ADS-B (SBMT / SAO)
06:06AM -23.6895 -46.0228 257° West 364 419 19,000 -1,740 Descending FlightAware ADS-B (SBMT / SAO)
06:07AM -23.7009 -46.0775 257° West 358 412 18,100 -1,800 Descending FlightAware ADS-B (SBMT / SAO)
06:08AM -23.7120 -46.1314 257° West 354 407 17,200 -1,740 Descending FlightAware ADS-B (SBMT / SAO)
06:08AM -23.7231 -46.1851 259° West 346 398 16,300 -1,680 Descending FlightAware ADS-B (SBMT / SAO)
06:09AM -23.7334 -46.2370 258° West 344 396 15,500 -1,620 Descending FlightAware ADS-B (NZJC)
06:09AM -23.7426 -46.2817 259° West 336 387 14,800 -1,620 Descending FlightAware ADS-B (SBMT / SAO)
06:09AM -23.7528 -46.3300 258° West 329 379 14,000 -1,620 Descending FlightAware ADS-B (SBMT / SAO)
06:10AM -23.7630 -46.3792 259° West 322 371 13,200 -1,500 Descending FlightAware ADS-B (SBMT / SAO)
06:10AM -23.7728 -46.4272 258° West 318 366 12,500 -1,440 Descending FlightAware ADS-B (SBMT / SAO)
06:11AM -23.7824 -46.4751 258° West 313 360 11,700 -1,560 Descending FlightAware ADS-B
06:12AM -23.7919 -46.5225 258° West 309 356 10,900 -1,380 Descending FlightAware ADS-B
06:12AM -23.8001 -46.5634 258° West 303 349 10,300 -1,020 Descending FlightAware ADS-B
06:12AM -23.8082 -46.6033 259° West 284 327 10,000 -660 Descending FlightAware ADS-B (SBMT / SAO)
06:13AM -23.8096 -46.6102 259° West 288 331 10,000 -900 Level FlightAware ADS-B (SBMT / SAO)
06:13AM -23.8141 -46.6324 257° West 302 348 9,700 -1,320 Descending FlightAware ADS-B (NZJC)
06:13AM -23.8181 -46.6547 262° West 302 348 9,300 -1,500 Descending FlightAware ADS-B
06:13AM -23.8183 -46.6619 270° West 302 348 9,200 -1,500 Descending FlightAware ADS-B (SBMT / SAO)
06:13AM -23.8175 -46.6691 279° West 301 346 9,100 -1,200 Descending FlightAware ADS-B (SBMT / SAO)
06:13AM -23.8156 -46.6769 286° West 298 343 9,000 -1,200 Descending FlightAware ADS-B (SBMT / SAO)
06:13AM -23.8132 -46.6826 298° West 299 344 8,900 -780 Descending FlightAware ADS-B
06:14AM -23.8068 -46.6929 313° West 298 343 8,800 -420 Descending FlightAware ADS-B
06:14AM -23.7990 -46.7006 322° Northwest 292 336 8,800  Level FlightAware ADS-B (SBMT / SAO)
06:14AM -23.7934 -46.7048 326° Northwest 291 335 8,800 -600 Level FlightAware ADS-B (SBMT / SAO)
06:14AM -23.7765 -46.7167 327° Northwest 298 343 8,600 -780 Descending FlightAware ADS-B
06:14AM -23.7583 -46.7298 326° Northwest 295 339 8,400 -1,020 Descending FlightAware ADS-B
06:14AM -23.7413 -46.7422 326° Northwest 295 339 8,100 -780 Descending FlightAware ADS-B
06:15AM -23.7145 -46.7619 326° Northwest 294 338 7,900 -480 Descending FlightAware ADS-B
06:15AM -23.6974 -46.7743 327° Northwest 294 338 7,800 -600 Descending FlightAware ADS-B
06:15AM -23.6787 -46.7877 327° Northwest 293 337 7,600 -840 Descending FlightAware ADS-B (SBMT / SAO)
06:16AM -23.6634 -46.7985 327° Northwest 285 328 7,400 -600 Descending FlightAware ADS-B
06:16AM -23.6559 -46.8035 330° Northwest 281 323 7,400 -600 Level FlightAware ADS-B (SBMT / SAO)
06:16AM -23.6510 -46.8061 335° Northwest 279 321 7,300 -1,200 Descending FlightAware ADS-B
06:16AM -23.6448 -46.8083 342° North 275 316 7,200 -600 Descending FlightAware ADS-B
06:16AM -23.6269 -46.8128 348° North 258 297 7,100 -1,140 Descending FlightAware ADS-B
06:16AM -23.6054 -46.8175 349° North 261 300 6,600 -1,740 Descending FlightAware ADS-B (SBMT / SAO)
06:17AM -23.5872 -46.8215 349° North 264 304 6,100 -1,500 Descending FlightAware ADS-B
06:17AM -23.5763 -46.8230 357° North 261 300 6,000 -1,200 Descending FlightAware ADS-B (SBMT / SAO)
06:17AM -23.5735 -46.8230 North 259 298 5,900 -780 Descending FlightAware ADS-B
06:17AM -23.5675 -46.8219 13° North 254 292 5,900 -720 Level FlightAware ADS-B
06:17AM -23.5622 -46.8199 21° North 249 287 5,800 -600 Descending FlightAware ADS-B
06:17AM -23.5597 -46.8186 33° Northeast 244 281 5,800 -780 Level FlightAware ADS-B
06:17AM -23.5539 -46.8140 41° Northeast 236 272 5,700 -600 Descending FlightAware ADS-B (SBMT / SAO)
06:17AM -23.5486 -46.8083 47° Northeast 236 272 5,700 -540 Level FlightAware ADS-B (SBMT / SAO)
06:18AM -23.5389 -46.7964 50° Northeast 226 260 5,500 -840 Descending FlightAware ADS-B
06:18AM -23.5335 -46.7872 64° Northeast 215 247 5,400 -600 Descending FlightAware ADS-B (SBMT / SAO)
06:18AM -23.5318 -46.7833 66° East 215 247 5,400 -600 Level FlightAware ADS-B (SBMT / SAO)
06:18AM -23.5302 -46.7792 68° East 211 243 5,300 -1,080 Descending FlightAware ADS-B (NZJC)
06:18AM -23.5255 -46.7658 75° East 204 235 5,000 -1,200 Descending FlightAware ADS-B
06:18AM -23.5235 -46.7573 79° East 205 236 4,900 -1,380 Descending FlightAware ADS-B (SBMT / SAO)
06:18AM -23.5224 -46.7518 81° East 207 238 4,800 -1,140 Descending FlightAware ADS-B (SBMT / SAO)
06:18AM -23.5215 -46.7422 93° East 205 236 4,600 -1,140 Descending FlightAware ADS-B
06:19AM -23.5230 -46.7365 113° Southeast 203 234 4,500 -840 Descending FlightAware ADS-B
06:19AM -23.5278 -46.7287 129° Southeast 193 222 4,400 -480 Descending FlightAware ADS-B
06:19AM -23.5311 -46.7247 134° Southeast 187 215 4,400 -720 Level FlightAware ADS-B (SBMT / SAO)
06:19AM -23.5327 -46.7231 140° Southeast 185 213 4,300 -900 Descending FlightAware ADS-B
06:19AM -23.5474 -46.7117 146° Southeast 172 198 4,000 -900 Descending FlightAware ADS-B
06:20AM -23.5594 -46.7031 148° Southeast 155 178 3,700 -900 Descending FlightAware ADS-B
06:20AM -23.5661 -46.6986 146° Southeast 140 161 3,600 -480 Descending FlightAware ADS-B (SBMT / SAO)
06:20AM -23.5690 -46.6964 145° Southeast 136 157 3,600  Level FlightAware ADS-B (SBMT / SAO)
06:20AM -23.5717 -46.6946 146° Southeast 136 157 3,600 -720 Level FlightAware ADS-B (SBMT / SAO)
06:20AM -23.5737 -46.6931 146° Southeast 136 157 3,500 -1,140 Descending FlightAware ADS-B (SBMT / SAO)
06:20AM -23.5775 -46.6905 146° Southeast 137 158 3,400 -840 Descending FlightAware ADS-B (SBMT / SAO)
06:20AM -23.5854 -46.6851 148° Southeast 142 163 3,200 -600 Descending FlightAware ADS-B
06:20AM -23.5884 -46.6830 147° Southeast 141 162 3,200 -480 Level FlightAware ADS-B
06:21AM -23.5936 -46.6794 147° Southeast 139 160 3,100 -840 Descending FlightAware ADS-B (SBMT / SAO)
06:21AM -23.6019 -46.6736 147° Southeast 138 159 2,900 -780 Descending FlightAware ADS-B (SBMT / SAO)
06:21AM -23.6096 -46.6683 147° Southeast 135 155 2,700 -720 Descending FlightAware ADS-B
06:21AM -23.6209 -46.6604 147° Southeast 137 158 2,500 -600 Descending FlightAware ADS-B (SBMT / SAO)